sensor_id;sensor_type;location;lat;lon;timestamp;pressure;altitude;pressure_sealevel;temperature;humidity
56241;BME280;42155;53.096;23.226;2022-11-09T00:00:21;100064.91;;;7.28;81.60
56241;BME280;42155;53.096;23.226;2022-11-09T00:02:21;100051.81;;;7.26;81.57
56241;BME280;42155;53.096;23.226;2022-11-09T00:04:22;100053.69;;;7.24;81.44
56241;BME280;42155;53.096;23.226;2022-11-09T00:06:22;100051.16;;;7.23;81.21
56241;BME280;42155;53.096;23.226;2022-11-09T00:08:23;100047.75;;;7.21;81.59
56241;BME280;42155;53.096;23.226;2022-11-09T00:10:23;100042.47;;;7.21;81.76
56241;BME280;42155;53.096;23.226;2022-11-09T00:12:23;100023.63;;;7.00;81.07
56241;BME280;42155;53.096;23.226;2022-11-09T00:14:23;100048.72;;;7.20;81.77
56241;BME280;42155;53.096;23.226;2022-11-09T00:16:23;100041.84;;;7.17;81.59
56241;BME280;42155;53.096;23.226;2022-11-09T00:18:24;100048.06;;;7.16;81.41
56241;BME280;42155;53.096;23.226;2022-11-09T00:20:24;100042.78;;;7.16;81.50
56241;BME280;42155;53.096;23.226;2022-11-09T00:22:24;100044.56;;;7.15;81.74
56241;BME280;42155;53.096;23.226;2022-11-09T00:24:24;100040.13;;;7.16;81.79
56241;BME280;42155;53.096;23.226;2022-11-09T00:26:25;100011.88;;;6.91;81.42
56241;BME280;42155;53.096;23.226;2022-11-09T00:28:25;100046.28;;;7.17;81.34
56241;BME280;42155;53.096;23.226;2022-11-09T00:30:25;100044.56;;;7.15;81.03
56241;BME280;42155;53.096;23.226;2022-11-09T00:32:25;100042.03;;;7.14;81.57
56241;BME280;42155;53.096;23.226;2022-11-09T00:34:25;100044.78;;;7.12;81.00
56241;BME280;42155;53.096;23.226;2022-11-09T00:36:26;100033.69;;;7.07;81.16
56241;BME280;42155;53.096;23.226;2022-11-09T00:38:27;100036.41;;;7.06;81.72
56241;BME280;42155;53.096;23.226;2022-11-09T00:40:27;100029.34;;;7.06;81.81
56241;BME280;42155;53.096;23.226;2022-11-09T00:42:27;100024.28;;;7.03;81.55
56241;BME280;42155;53.096;23.226;2022-11-09T00:44:28;100030.59;;;7.01;81.25
56241;BME280;42155;53.096;23.226;2022-11-09T00:46:28;100032.28;;;7.02;81.65
56241;BME280;42155;53.096;23.226;2022-11-09T00:48:28;100034.06;;;7.01;81.57
56241;BME280;42155;53.096;23.226;2022-11-09T00:50:28;100028.06;;;6.99;81.50
56241;BME280;42155;53.096;23.226;2022-11-09T00:52:28;100022.88;;;6.98;81.86
56241;BME280;42155;53.096;23.226;2022-11-09T00:54:29;100027.28;;;6.97;81.87
56241;BME280;42155;53.096;23.226;2022-11-09T00:56:29;100026.56;;;6.95;81.40
56241;BME280;42155;53.096;23.226;2022-11-09T00:58:30;100021.28;;;6.95;81.82
56241;BME280;42155;53.096;23.226;2022-11-09T01:00:30;100033.72;;;6.93;81.69
56241;BME280;42155;53.096;23.226;2022-11-09T01:02:30;100032.97;;;6.91;81.28
56241;BME280;42155;53.096;23.226;2022-11-09T01:04:30;100039.22;;;6.90;82.05
56241;BME280;42155;53.096;23.226;2022-11-09T01:06:31;100041.06;;;6.88;81.54
56241;BME280;42155;53.096;23.226;2022-11-09T01:08:31;100036.84;;;6.85;81.67
56241;BME280;42155;53.096;23.226;2022-11-09T01:10:32;100025.47;;;6.85;81.87
56241;BME280;42155;53.096;23.226;2022-11-09T01:12:32;100032.63;;;6.83;81.95
56241;BME280;42155;53.096;23.226;2022-11-09T01:14:32;100029.97;;;6.83;82.06
56241;BME280;42155;53.096;23.226;2022-11-09T01:16:32;100025.84;;;6.79;82.04
56241;BME280;42155;53.096;23.226;2022-11-09T01:18:33;99978.66;;;6.47;81.98
56241;BME280;42155;53.096;23.226;2022-11-09T01:20:33;100027.19;;;6.72;81.72
56241;BME280;42155;53.096;23.226;2022-11-09T01:22:36;100033.41;;;6.71;82.01
56241;BME280;42155;53.096;23.226;2022-11-09T01:24:37;100031.91;;;6.67;81.80
56241;BME280;42155;53.096;23.226;2022-11-09T01:26:37;100026.63;;;6.67;82.14
56241;BME280;42155;53.096;23.226;2022-11-09T01:28:37;100025.13;;;6.62;82.23
56241;BME280;42155;53.096;23.226;2022-11-09T01:30:38;100021.72;;;6.60;81.67
56241;BME280;42155;53.096;23.226;2022-11-09T01:32:39;100026.16;;;6.60;81.61
56241;BME280;42155;53.096;23.226;2022-11-09T01:34:39;100021.72;;;6.60;82.15
56241;BME280;42155;53.096;23.226;2022-11-09T01:36:39;100025.31;;;6.59;82.28
56241;BME280;42155;53.096;23.226;2022-11-09T01:38:39;100024.38;;;6.60;82.31
56241;BME280;42155;53.096;23.226;2022-11-09T01:40:40;100024.38;;;6.60;81.85
56241;BME280;42155;53.096;23.226;2022-11-09T01:42:40;100020.03;;;6.59;82.31
56241;BME280;42155;53.096;23.226;2022-11-09T01:44:40;100021.94;;;6.57;81.52
56241;BME280;42155;53.096;23.226;2022-11-09T01:48:48;100018.53;;;6.55;82.19
56241;BME280;42155;53.096;23.226;2022-11-09T01:50:51;100018.81;;;6.51;81.75
56241;BME280;42155;53.096;23.226;2022-11-09T01:52:52;100016.19;;;6.51;81.86
56241;BME280;42155;53.096;23.226;2022-11-09T01:54:54;100017.25;;;6.48;81.93
56241;BME280;42155;53.096;23.226;2022-11-09T01:56:57;100022.53;;;6.48;81.51
56241;BME280;42155;53.096;23.226;2022-11-09T01:59:01;100018.94;;;6.49;81.64
56241;BME280;42155;53.096;23.226;2022-11-09T02:01:02;100025.03;;;6.50;81.99
56241;BME280;42155;53.096;23.226;2022-11-09T02:03:06;100023.38;;;6.49;82.12
56241;BME280;42155;53.096;23.226;2022-11-09T02:05:11;99975.19;;;6.18;81.65
56241;BME280;42155;53.096;23.226;2022-11-09T02:07:12;100018.28;;;6.46;81.94
56241;BME280;42155;53.096;23.226;2022-11-09T02:11:16;100019.31;;;6.43;82.25
56241;BME280;42155;53.096;23.226;2022-11-09T02:13:18;100013.22;;;6.43;81.88
56241;BME280;42155;53.096;23.226;2022-11-09T02:15:21;100018.56;;;6.41;82.23
56241;BME280;42155;53.096;23.226;2022-11-09T02:17:21;100020.25;;;6.42;81.74
56241;BME280;42155;53.096;23.226;2022-11-09T02:19:22;100016.75;;;6.42;82.22
56241;BME280;42155;53.096;23.226;2022-11-09T02:21:22;100014.97;;;6.42;82.10
56241;BME280;42155;53.096;23.226;2022-11-09T02:23:24;100014.06;;;6.43;81.88
56241;BME280;42155;53.096;23.226;2022-11-09T02:25:24;100025.44;;;6.44;81.98
56241;BME280;42155;53.096;23.226;2022-11-09T02:27:25;100020.16;;;6.44;82.12
56241;BME280;42155;53.096;23.226;2022-11-09T02:29:26;100015.75;;;6.44;81.85
56241;BME280;42155;53.096;23.226;2022-11-09T02:31:29;100019.13;;;6.46;82.02
56241;BME280;42155;53.096;23.226;2022-11-09T02:33:38;100017.44;;;6.45;82.09
56241;BME280;42155;53.096;23.226;2022-11-09T02:35:39;100019.97;;;6.47;82.10
56241;BME280;42155;53.096;23.226;2022-11-09T02:37:41;100021.66;;;6.48;81.48
56241;BME280;42155;53.096;23.226;2022-11-09T02:39:43;100026.09;;;6.47;81.65
56241;BME280;42155;53.096;23.226;2022-11-09T02:41:48;100023.47;;;6.47;81.84
56241;BME280;42155;53.096;23.226;2022-11-09T02:43:49;100019.78;;;6.50;82.13
56241;BME280;42155;53.096;23.226;2022-11-09T02:45:51;100025.03;;;6.50;81.66
56241;BME280;42155;53.096;23.226;2022-11-09T02:47:51;100024.03;;;6.52;82.08
56241;BME280;42155;53.096;23.226;2022-11-09T02:49:51;100027.50;;;6.53;81.94
56241;BME280;42155;53.096;23.226;2022-11-09T02:51:51;100021.28;;;6.54;82.14
56241;BME280;42155;53.096;23.226;2022-11-09T02:53:52;100018.75;;;6.52;81.71
56241;BME280;42155;53.096;23.226;2022-11-09T02:55:52;100020.44;;;6.53;81.31
56241;BME280;42155;53.096;23.226;2022-11-09T02:57:52;100019.59;;;6.53;81.34
56241;BME280;42155;53.096;23.226;2022-11-09T02:59:52;100020.44;;;6.53;81.51
56241;BME280;42155;53.096;23.226;2022-11-09T03:01:52;100017.81;;;6.53;81.91
56241;BME280;42155;53.096;23.226;2022-11-09T03:03:52;100022.13;;;6.54;81.59
56241;BME280;42155;53.096;23.226;2022-11-09T03:05:53;100024.88;;;6.53;82.03
56241;BME280;42155;53.096;23.226;2022-11-09T03:07:53;100024.88;;;6.53;81.63
56241;BME280;42155;53.096;23.226;2022-11-09T03:09:53;100024.03;;;6.52;81.81
56241;BME280;42155;53.096;23.226;2022-11-09T03:11:53;100019.59;;;6.53;81.89
56241;BME280;42155;53.096;23.226;2022-11-09T03:13:53;100022.13;;;6.54;81.46
56241;BME280;42155;53.096;23.226;2022-11-09T03:15:54;100025.72;;;6.53;81.90
56241;BME280;42155;53.096;23.226;2022-11-09T03:17:54;100025.72;;;6.53;81.94
56241;BME280;42155;53.096;23.226;2022-11-09T03:19:55;100022.22;;;6.53;81.41
56241;BME280;42155;53.096;23.226;2022-11-09T03:21:55;100017.03;;;6.51;82.00
56241;BME280;42155;53.096;23.226;2022-11-09T03:23:55;100011.03;;;6.49;81.54
56241;BME280;42155;53.096;23.226;2022-11-09T03:25:55;99965.84;;;6.27;81.83
56241;BME280;42155;53.096;23.226;2022-11-09T03:27:59;99999.53;;;6.50;81.39
56241;BME280;42155;53.096;23.226;2022-11-09T03:30:00;100006.59;;;6.50;81.59
56241;BME280;42155;53.096;23.226;2022-11-09T03:32:00;100004.91;;;6.49;81.85
56241;BME280;42155;53.096;23.226;2022-11-09T03:34:00;99998.88;;;6.47;81.75
56241;BME280;42155;53.096;23.226;2022-11-09T03:36:00;100001.59;;;6.45;82.04
56241;BME280;42155;53.096;23.226;2022-11-09T03:38:01;99985.78;;;6.45;81.44
56241;BME280;42155;53.096;23.226;2022-11-09T03:40:01;99991.06;;;6.45;81.98
56241;BME280;42155;53.096;23.226;2022-11-09T03:42:01;99985.97;;;6.42;81.33
56241;BME280;42155;53.096;23.226;2022-11-09T03:44:01;99987.88;;;6.40;81.35
56241;BME280;42155;53.096;23.226;2022-11-09T03:46:02;99991.47;;;6.39;81.53
56241;BME280;42155;53.096;23.226;2022-11-09T03:48:02;99984.50;;;6.38;81.32
56241;BME280;42155;53.096;23.226;2022-11-09T03:50:02;99996.91;;;6.36;82.10
56241;BME280;42155;53.096;23.226;2022-11-09T03:52:03;99989.94;;;6.35;82.05
56241;BME280;42155;53.096;23.226;2022-11-09T03:54:03;99992.69;;;6.33;81.95
56241;BME280;42155;53.096;23.226;2022-11-09T03:56:03;99994.47;;;6.33;82.22
56241;BME280;42155;53.096;23.226;2022-11-09T03:58:04;99988.34;;;6.32;81.63
56241;BME280;42155;53.096;23.226;2022-11-09T04:00:05;99994.56;;;6.31;81.63
56241;BME280;42155;53.096;23.226;2022-11-09T04:02:05;99988.44;;;6.31;82.03
56241;BME280;42155;53.096;23.226;2022-11-09T04:04:06;99934.28;;;5.98;81.37
56241;BME280;42155;53.096;23.226;2022-11-09T04:06:06;99981.66;;;6.27;81.41
56241;BME280;42155;53.096;23.226;2022-11-09T04:08:06;99987.78;;;6.27;82.17
56241;BME280;42155;53.096;23.226;2022-11-09T04:10:06;99974.72;;;6.26;81.39
56241;BME280;42155;53.096;23.226;2022-11-09T04:12:07;99973.03;;;6.25;81.56
56241;BME280;42155;53.096;23.226;2022-11-09T04:14:07;99972.19;;;6.24;81.86
56241;BME280;42155;53.096;23.226;2022-11-09T04:16:07;99973.94;;;6.24;81.51
56241;BME280;42155;53.096;23.226;2022-11-09T04:18:08;99967.09;;;6.21;81.58
56241;BME280;42155;53.096;23.226;2022-11-09T04:20:10;99962.78;;;6.20;81.43
56241;BME280;42155;53.096;23.226;2022-11-09T04:22:10;99962.78;;;6.20;82.13
56241;BME280;42155;53.096;23.226;2022-11-09T04:24:11;99966.44;;;6.18;81.40
56241;BME280;42155;53.096;23.226;2022-11-09T04:26:11;99971.69;;;6.18;81.67
56241;BME280;42155;53.096;23.226;2022-11-09T04:28:11;99969.25;;;6.15;81.73
56241;BME280;42155;53.096;23.226;2022-11-09T04:30:11;99977.06;;;6.16;82.30
56241;BME280;42155;53.096;23.226;2022-11-09T04:32:11;99970.97;;;6.16;81.79
56241;BME280;42155;53.096;23.226;2022-11-09T04:34:11;99978.88;;;6.16;81.77
56241;BME280;42155;53.096;23.226;2022-11-09T04:36:12;99984.97;;;6.16;82.36
56241;BME280;42155;53.096;23.226;2022-11-09T04:38:12;99941.72;;;5.92;82.37
56241;BME280;42155;53.096;23.226;2022-11-09T04:40:13;99987.69;;;6.15;82.13
56241;BME280;42155;53.096;23.226;2022-11-09T04:42:13;99986.78;;;6.16;82.13
56241;BME280;42155;53.096;23.226;2022-11-09T04:44:13;99988.56;;;6.15;81.75
56241;BME280;42155;53.096;23.226;2022-11-09T04:46:13;99935.19;;;5.83;82.19
56241;BME280;42155;53.096;23.226;2022-11-09T04:48:13;99987.91;;;6.11;81.74
56241;BME280;42155;53.096;23.226;2022-11-09T04:50:14;99987.91;;;6.11;82.23
56241;BME280;42155;53.096;23.226;2022-11-09T04:52:14;99987.91;;;6.11;81.68
56241;BME280;42155;53.096;23.226;2022-11-09T04:54:14;99985.16;;;6.13;82.03
56241;BME280;42155;53.096;23.226;2022-11-09T04:56:14;99988.75;;;6.12;81.68
56241;BME280;42155;53.096;23.226;2022-11-09T04:58:14;99993.91;;;6.13;81.62
56241;BME280;42155;53.096;23.226;2022-11-09T05:00:15;99993.16;;;6.11;81.45
56241;BME280;42155;53.096;23.226;2022-11-09T05:02:15;99986.28;;;6.09;82.24
56241;BME280;42155;53.096;23.226;2022-11-09T05:04:15;99994.00;;;6.12;81.87
56241;BME280;42155;53.096;23.226;2022-11-09T05:06:15;99989.59;;;6.12;81.63
56241;BME280;42155;53.096;23.226;2022-11-09T05:08:15;99994.13;;;6.10;81.61
56241;BME280;42155;53.096;23.226;2022-11-09T05:10:16;99989.75;;;6.09;81.49
56241;BME280;42155;53.096;23.226;2022-11-09T05:12:16;99987.41;;;6.05;82.12
56241;BME280;42155;53.096;23.226;2022-11-09T05:14:16;99999.84;;;6.03;81.68
56241;BME280;42155;53.096;23.226;2022-11-09T05:16:16;99994.56;;;6.03;82.27
56241;BME280;42155;53.096;23.226;2022-11-09T05:18:16;99990.16;;;6.03;81.77
56241;BME280;42155;53.096;23.226;2022-11-09T05:20:17;99983.94;;;6.04;81.62
56241;BME280;42155;53.096;23.226;2022-11-09T05:22:17;99978.66;;;6.04;82.35
56241;BME280;42155;53.096;23.226;2022-11-09T05:24:17;99969.06;;;6.03;81.62
56241;BME280;42155;53.096;23.226;2022-11-09T05:26:17;99978.66;;;6.04;81.44
56241;BME280;42155;53.096;23.226;2022-11-09T05:28:18;99970.75;;;6.04;81.74
56241;BME280;42155;53.096;23.226;2022-11-09T05:30:18;99967.19;;;6.05;81.64
56241;BME280;42155;53.096;23.226;2022-11-09T05:32:18;99974.16;;;6.06;81.93
56241;BME280;42155;53.096;23.226;2022-11-09T05:34:18;99970.75;;;6.04;82.28
56241;BME280;42155;53.096;23.226;2022-11-09T05:36:18;99936.22;;;5.80;81.84
56241;BME280;42155;53.096;23.226;2022-11-09T05:38:19;99975.00;;;6.07;81.68
56241;BME280;42155;53.096;23.226;2022-11-09T05:40:19;99981.13;;;6.07;81.98
56241;BME280;42155;53.096;23.226;2022-11-09T05:42:19;99979.22;;;6.09;81.88
56241;BME280;42155;53.096;23.226;2022-11-09T05:44:22;99988.63;;;6.13;81.65
56241;BME280;42155;53.096;23.226;2022-11-09T05:46:22;99989.41;;;6.16;82.27
56241;BME280;42155;53.096;23.226;2022-11-09T05:48:22;99991.94;;;6.17;82.05
56241;BME280;42155;53.096;23.226;2022-11-09T05:50:22;99983.94;;;6.19;81.47
56241;BME280;42155;53.096;23.226;2022-11-09T05:52:23;99985.53;;;6.21;82.13
56241;BME280;42155;53.096;23.226;2022-11-09T05:54:23;99986.38;;;6.22;81.88
56241;BME280;42155;53.096;23.226;2022-11-09T05:56:23;99996.81;;;6.23;81.96
56241;BME280;42155;53.096;23.226;2022-11-09T05:58:23;99988.00;;;6.24;81.32
56241;BME280;42155;53.096;23.226;2022-11-09T06:00:23;99986.94;;;6.27;81.53
56241;BME280;42155;53.096;23.226;2022-11-09T06:02:24;99986.00;;;6.28;81.09
56241;BME280;42155;53.096;23.226;2022-11-09T06:04:24;99990.25;;;6.30;81.61
56241;BME280;42155;53.096;23.226;2022-11-09T06:06:24;99988.28;;;6.34;81.66
56241;BME280;42155;53.096;23.226;2022-11-09T06:08:24;99993.31;;;6.37;81.16
56241;BME280;42155;53.096;23.226;2022-11-09T06:10:24;99997.47;;;6.41;80.80
56241;BME280;42155;53.096;23.226;2022-11-09T06:12:24;100005.19;;;6.44;81.50
56241;BME280;42155;53.096;23.226;2022-11-09T06:14:25;99998.88;;;6.47;80.95
56241;BME280;42155;53.096;23.226;2022-11-09T06:16:25;99999.63;;;6.49;80.81
56241;BME280;42155;53.096;23.226;2022-11-09T06:18:25;100002.28;;;6.49;81.23
56241;BME280;42155;53.096;23.226;2022-11-09T06:20:26;100010.06;;;6.50;81.64
56241;BME280;42155;53.096;23.226;2022-11-09T06:22:27;99998.56;;;6.51;81.48
56241;BME280;42155;53.096;23.226;2022-11-09T06:24:27;99995.94;;;6.51;81.45
56241;BME280;42155;53.096;23.226;2022-11-09T06:26:27;100002.94;;;6.52;80.94
56241;BME280;42155;53.096;23.226;2022-11-09T06:28:27;99993.97;;;6.55;80.96
56241;BME280;42155;53.096;23.226;2022-11-09T06:30:28;99997.38;;;6.57;81.51
56241;BME280;42155;53.096;23.226;2022-11-09T06:32:28;100000.00;;;6.57;80.98
56241;BME280;42155;53.096;23.226;2022-11-09T06:34:28;100001.69;;;6.58;81.49
56241;BME280;42155;53.096;23.226;2022-11-09T06:36:28;100002.34;;;6.61;81.52
56241;BME280;42155;53.096;23.226;2022-11-09T06:38:29;100004.03;;;6.62;81.35
56241;BME280;42155;53.096;23.226;2022-11-09T06:40:29;99999.41;;;6.66;81.44
56241;BME280;42155;53.096;23.226;2022-11-09T06:42:29;100004.47;;;6.69;81.29
56241;BME280;42155;53.096;23.226;2022-11-09T06:44:29;99993.84;;;6.71;81.36
56241;BME280;42155;53.096;23.226;2022-11-09T06:46:32;100000.53;;;6.76;81.40
56241;BME280;42155;53.096;23.226;2022-11-09T06:48:32;100002.94;;;6.79;80.63
56241;BME280;42155;53.096;23.226;2022-11-09T06:50:32;99996.53;;;6.83;81.35
56241;BME280;42155;53.096;23.226;2022-11-09T06:52:32;100003.22;;;6.89;80.64
56241;BME280;42155;53.096;23.226;2022-11-09T06:54:32;100002.06;;;6.93;81.07
56241;BME280;42155;53.096;23.226;2022-11-09T06:56:33;99997.34;;;6.98;80.40
56241;BME280;42155;53.096;23.226;2022-11-09T06:58:33;99999.78;;;7.01;81.07
56241;BME280;42155;53.096;23.226;2022-11-09T07:00:34;99996.75;;;7.07;80.35
56241;BME280;42155;53.096;23.226;2022-11-09T07:02:34;99992.00;;;7.12;80.27
56241;BME280;42155;53.096;23.226;2022-11-09T07:04:34;99988.22;;;7.17;80.82
56241;BME280;42155;53.096;23.226;2022-11-09T07:06:38;99999.22;;;7.23;80.28
56241;BME280;42155;53.096;23.226;2022-11-09T07:08:38;99991.94;;;7.27;80.82
56241;BME280;42155;53.096;23.226;2022-11-09T07:10:39;99995.25;;;7.30;80.15
56241;BME280;42155;53.096;23.226;2022-11-09T07:12:39;99995.00;;;7.33;80.63
56241;BME280;42155;53.096;23.226;2022-11-09T07:14:39;99998.19;;;7.38;80.29
56241;BME280;42155;53.096;23.226;2022-11-09T07:16:39;100005.81;;;7.43;80.25
56241;BME280;42155;53.096;23.226;2022-11-09T07:18:39;100002.00;;;7.47;80.43
56241;BME280;42155;53.096;23.226;2022-11-09T07:20:40;99995.59;;;7.51;80.27
56241;BME280;42155;53.096;23.226;2022-11-09T07:22:40;100004.16;;;7.55;80.45
56241;BME280;42155;53.096;23.226;2022-11-09T07:24:40;99993.47;;;7.56;80.50
56241;BME280;42155;53.096;23.226;2022-11-09T07:26:40;99995.91;;;7.59;80.47
56241;BME280;42155;53.096;23.226;2022-11-09T07:28:41;99995.50;;;7.65;80.52
56241;BME280;42155;53.096;23.226;2022-11-09T07:30:41;99983.78;;;7.70;80.43
56241;BME280;42155;53.096;23.226;2022-11-09T07:32:41;99986.00;;;7.76;80.03
56241;BME280;42155;53.096;23.226;2022-11-09T07:34:41;99989.06;;;7.82;80.11
56241;BME280;42155;53.096;23.226;2022-11-09T07:36:41;99994.78;;;7.89;80.23
56241;BME280;42155;53.096;23.226;2022-11-09T07:38:42;99990.97;;;7.93;79.37
56241;BME280;42155;53.096;23.226;2022-11-09T07:40:42;99987.16;;;7.97;79.66
56241;BME280;42155;53.096;23.226;2022-11-09T07:42:42;99989.59;;;8.00;79.77
56241;BME280;42155;53.096;23.226;2022-11-09T07:44:42;99983.25;;;8.03;80.05
56241;BME280;42155;53.096;23.226;2022-11-09T07:46:46;99976.91;;;8.05;79.86
56241;BME280;42155;53.096;23.226;2022-11-09T07:48:46;99976.47;;;8.11;79.50
56241;BME280;42155;53.096;23.226;2022-11-09T07:50:46;99976.28;;;8.14;80.10
56241;BME280;42155;53.096;23.226;2022-11-09T07:52:47;99976.66;;;8.21;79.74
56241;BME280;42155;53.096;23.226;2022-11-09T07:54:47;99982.59;;;8.25;79.45
56241;BME280;42155;53.096;23.226;2022-11-09T07:56:47;99981.44;;;8.29;79.37
56241;BME280;42155;53.096;23.226;2022-11-09T07:58:50;99983.63;;;8.35;79.75
56241;BME280;42155;53.096;23.226;2022-11-09T08:00:50;99975.19;;;8.43;79.68
56241;BME280;42155;53.096;23.226;2022-11-09T08:02:51;99977.19;;;8.52;79.36
56241;BME280;42155;53.096;23.226;2022-11-09T08:04:51;99973.88;;;8.61;79.26
56241;BME280;42155;53.096;23.226;2022-11-09T08:06:51;99979.34;;;8.71;79.28
56241;BME280;42155;53.096;23.226;2022-11-09T08:08:52;99980.25;;;8.82;79.15
56241;BME280;42155;53.096;23.226;2022-11-09T08:10:54;99971.63;;;8.91;79.13
56241;BME280;42155;53.096;23.226;2022-11-09T08:12:55;99973.72;;;8.99;78.77
56241;BME280;42155;53.096;23.226;2022-11-09T08:14:56;99967.13;;;9.05;78.73
56241;BME280;42155;53.096;23.226;2022-11-09T08:16:56;99973.66;;;9.12;78.56
56241;BME280;42155;53.096;23.226;2022-11-09T08:18:56;99964.53;;;9.16;78.59
56241;BME280;42155;53.096;23.226;2022-11-09T08:20:56;99968.75;;;9.18;78.79
56241;BME280;42155;53.096;23.226;2022-11-09T08:22:59;99968.53;;;9.22;78.08
56241;BME280;42155;53.096;23.226;2022-11-09T08:25:00;99977.09;;;9.25;78.77
56241;BME280;42155;53.096;23.226;2022-11-09T08:27:00;99958.22;;;9.30;78.11
56241;BME280;42155;53.096;23.226;2022-11-09T08:29:00;99965.06;;;9.32;78.82
56241;BME280;42155;53.096;23.226;2022-11-09T08:31:01;99963.16;;;9.34;78.55
56241;BME280;42155;53.096;23.226;2022-11-09T08:33:02;99960.16;;;9.39;78.66
56241;BME280;42155;53.096;23.226;2022-11-09T08:35:02;99968.59;;;9.44;78.38
56241;BME280;42155;53.096;23.226;2022-11-09T08:37:03;99962.63;;;9.53;78.18
56241;BME280;42155;53.096;23.226;2022-11-09T08:39:03;99968.06;;;9.63;78.30
56241;BME280;42155;53.096;23.226;2022-11-09T08:41:03;99955.66;;;9.75;78.12
56241;BME280;42155;53.096;23.226;2022-11-09T08:43:05;99957.59;;;9.84;77.93
56241;BME280;42155;53.096;23.226;2022-11-09T08:45:05;99966.78;;;9.91;78.02
56241;BME280;42155;53.096;23.226;2022-11-09T08:47:05;99960.97;;;9.97;77.44
56241;BME280;42155;53.096;23.226;2022-11-09T08:49:05;99958.31;;;9.97;77.84
56241;BME280;42155;53.096;23.226;2022-11-09T08:51:06;99959.31;;;9.96;77.92
56241;BME280;42155;53.096;23.226;2022-11-09T08:53:06;99957.63;;;9.95;77.81
56241;BME280;42155;53.096;23.226;2022-11-09T08:55:06;99950.63;;;9.94;77.88
56241;BME280;42155;53.096;23.226;2022-11-09T08:57:07;99953.16;;;9.95;77.66
56241;BME280;42155;53.096;23.226;2022-11-09T08:59:07;99946.88;;;9.97;78.03
56241;BME280;42155;53.096;23.226;2022-11-09T09:01:07;99952.06;;;9.98;77.98
56241;BME280;42155;53.096;23.226;2022-11-09T09:03:08;99949.31;;;10.00;78.24
56241;BME280;42155;53.096;23.226;2022-11-09T09:05:08;99953.50;;;10.02;78.14
56241;BME280;42155;53.096;23.226;2022-11-09T09:07:08;99958.81;;;10.02;77.79
56241;BME280;42155;53.096;23.226;2022-11-09T09:09:08;99962.06;;;10.06;77.70
56241;BME280;42155;53.096;23.226;2022-11-09T09:11:09;99965.34;;;10.09;77.86
56241;BME280;42155;53.096;23.226;2022-11-09T09:13:09;99959.81;;;10.12;77.94
56241;BME280;42155;53.096;23.226;2022-11-09T09:15:09;99969.06;;;10.18;77.85
56241;BME280;42155;53.096;23.226;2022-11-09T09:17:10;99971.13;;;10.26;77.94
56241;BME280;42155;53.096;23.226;2022-11-09T09:19:10;99963.41;;;10.34;77.45
56241;BME280;42155;53.096;23.226;2022-11-09T09:21:10;99971.38;;;10.45;77.41
56241;BME280;42155;53.096;23.226;2022-11-09T09:25:29;99973.50;;;10.62;77.32
56241;BME280;42155;53.096;23.226;2022-11-09T09:27:30;99976.91;;;10.64;76.96
56241;BME280;42155;53.096;23.226;2022-11-09T09:29:30;99977.59;;;10.66;77.04
56241;BME280;42155;53.096;23.226;2022-11-09T09:31:30;99969.53;;;10.68;77.23
56241;BME280;42155;53.096;23.226;2022-11-09T09:33:30;99973.88;;;10.69;77.49
56241;BME280;42155;53.096;23.226;2022-11-09T09:35:30;99968.31;;;10.72;76.89
56241;BME280;42155;53.096;23.226;2022-11-09T09:37:31;99981.47;;;10.74;76.95
56241;BME280;42155;53.096;23.226;2022-11-09T09:39:31;99974.84;;;10.68;77.09
56241;BME280;42155;53.096;23.226;2022-11-09T09:43:41;99972.56;;;10.63;77.17
56241;BME280;42155;53.096;23.226;2022-11-09T09:45:43;99965.81;;;10.59;77.23
56241;BME280;42155;53.096;23.226;2022-11-09T09:47:50;99978.13;;;10.60;77.84
56241;BME280;42155;53.096;23.226;2022-11-09T09:49:59;99971.00;;;10.61;77.05
56241;BME280;42155;53.096;23.226;2022-11-09T09:52:02;99972.81;;;10.60;77.60
56241;BME280;42155;53.096;23.226;2022-11-09T09:54:05;99973.28;;;10.65;77.85
56241;BME280;42155;53.096;23.226;2022-11-09T09:56:10;99972.19;;;10.68;77.45
56241;BME280;42155;53.096;23.226;2022-11-09T10:00:15;99965.78;;;10.70;77.38
56241;BME280;42155;53.096;23.226;2022-11-09T10:02:22;99961.31;;;10.71;77.58
56241;BME280;42155;53.096;23.226;2022-11-09T10:04:23;99962.63;;;10.77;77.54
56241;BME280;42155;53.096;23.226;2022-11-09T10:06:41;99948.03;;;10.82;77.55
56241;BME280;42155;53.096;23.226;2022-11-09T10:15:12;99939.19;;;10.93;77.42
56241;BME280;42155;53.096;23.226;2022-11-09T10:18:00;99943.03;;;11.00;77.46
56241;BME280;42155;53.096;23.226;2022-11-09T10:22:07;99934.69;;;11.26;76.90
56241;BME280;42155;53.096;23.226;2022-11-09T10:28:40;99935.81;;;11.44;76.41
56241;BME280;42155;53.096;23.226;2022-11-09T10:30:40;99942.78;;;11.45;76.14
56241;BME280;42155;53.096;23.226;2022-11-09T10:32:42;99934.56;;;11.48;76.43
56241;BME280;42155;53.096;23.226;2022-11-09T10:37:03;99939.09;;;11.57;76.62
56241;BME280;42155;53.096;23.226;2022-11-09T10:39:07;99934.25;;;11.62;76.52
56241;BME280;42155;53.096;23.226;2022-11-09T10:41:14;99943.63;;;11.66;76.65
56241;BME280;42155;53.096;23.226;2022-11-09T10:43:16;99934.44;;;11.70;76.29
56241;BME280;42155;53.096;23.226;2022-11-09T10:45:28;99939.47;;;11.73;75.94
56241;BME280;42155;53.096;23.226;2022-11-09T10:47:28;99924.94;;;11.78;76.21
56241;BME280;42155;53.096;23.226;2022-11-09T10:49:28;99943.31;;;11.81;75.78
56241;BME280;42155;53.096;23.226;2022-11-09T10:53:34;99929.78;;;11.84;75.63
56241;BME280;42155;53.096;23.226;2022-11-09T10:55:35;99922.03;;;11.81;75.92
56241;BME280;42155;53.096;23.226;2022-11-09T10:57:35;99924.00;;;11.79;76.13
56241;BME280;42155;53.096;23.226;2022-11-09T10:59:53;99924.94;;;11.78;75.57
56241;BME280;42155;53.096;23.226;2022-11-09T11:01:53;99933.91;;;11.77;76.23
56241;BME280;42155;53.096;23.226;2022-11-09T11:03:54;99934.75;;;11.77;76.42